sensor_id;sensor_type;location;lat;lon;timestamp;P1;durP1;ratioP1;P2;durP2;ratioP2
20865;SDS011;10593;48.398;10.698;2022-09-30T00:01:47;6.30;;;5.80;;
20865;SDS011;10593;48.398;10.698;2022-09-30T00:04:24;5.57;;;5.07;;
20865;SDS011;10593;48.398;10.698;2022-09-30T00:06:50;5.50;;;5.03;;
20865;SDS011;10593;48.398;10.698;2022-09-30T00:09:18;5.27;;;4.77;;
20865;SDS011;10593;48.398;10.698;2022-09-30T00:11:44;5.43;;;5.03;;
20865;SDS011;10593;48.398;10.698;2022-09-30T00:14:18;5.03;;;4.63;;
20865;SDS011;10593;48.398;10.698;2022-09-30T00:16:46;5.13;;;4.67;;
20865;SDS011;10593;48.398;10.698;2022-09-30T00:19:13;6.43;;;4.80;;
20865;SDS011;10593;48.398;10.698;2022-09-30T00:21:39;4.33;;;4.03;;
20865;SDS011;10593;48.398;10.698;2022-09-30T00:24:06;4.07;;;3.77;;
20865;SDS011;10593;48.398;10.698;2022-09-30T00:26:32;7.20;;;4.80;;
20865;SDS011;10593;48.398;10.698;2022-09-30T00:29:00;4.07;;;3.77;;
20865;SDS011;10593;48.398;10.698;2022-09-30T00:31:28;4.20;;;4.00;;
20865;SDS011;10593;48.398;10.698;2022-09-30T00:33:58;5.10;;;4.10;;
20865;SDS011;10593;48.398;10.698;2022-09-30T00:36:43;4.33;;;3.90;;
20865;SDS011;10593;48.398;10.698;2022-09-30T00:39:22;6.30;;;4.37;;
20865;SDS011;10593;48.398;10.698;2022-09-30T00:41:55;6.93;;;4.17;;
20865;SDS011;10593;48.398;10.698;2022-09-30T00:44:43;7.57;;;4.07;;
20865;SDS011;10593;48.398;10.698;2022-09-30T00:50:13;4.10;;;3.80;;
20865;SDS011;10593;48.398;10.698;2022-09-30T00:52:58;4.47;;;4.17;;
20865;SDS011;10593;48.398;10.698;2022-09-30T00:58:29;10.63;;;4.00;;
20865;SDS011;10593;48.398;10.698;2022-09-30T01:01:05;3.40;;;3.20;;
20865;SDS011;10593;48.398;10.698;2022-09-30T01:03:35;3.73;;;3.43;;
20865;SDS011;10593;48.398;10.698;2022-09-30T01:06:09;4.20;;;3.80;;
20865;SDS011;10593;48.398;10.698;2022-09-30T01:08:35;4.37;;;3.80;;
20865;SDS011;10593;48.398;10.698;2022-09-30T01:11:04;4.60;;;4.23;;
20865;SDS011;10593;48.398;10.698;2022-09-30T01:13:30;4.40;;;4.10;;
20865;SDS011;10593;48.398;10.698;2022-09-30T01:16:09;3.93;;;3.63;;
20865;SDS011;10593;48.398;10.698;2022-09-30T01:28:26;4.67;;;4.37;;
20865;SDS011;10593;48.398;10.698;2022-09-30T01:31:41;4.47;;;4.17;;
20865;SDS011;10593;48.398;10.698;2022-09-30T01:42:32;4.50;;;4.20;;
20865;SDS011;10593;48.398;10.698;2022-09-30T01:45:20;5.70;;;4.37;;
20865;SDS011;10593;48.398;10.698;2022-09-30T01:48:17;4.40;;;4.00;;
20865;SDS011;10593;48.398;10.698;2022-09-30T01:51:00;4.17;;;3.87;;
20865;SDS011;10593;48.398;10.698;2022-09-30T01:58:56;4.87;;;3.67;;
20865;SDS011;10593;48.398;10.698;2022-09-30T02:01:28;4.30;;;4.00;;
20865;SDS011;10593;48.398;10.698;2022-09-30T02:04:06;4.87;;;4.57;;
20865;SDS011;10593;48.398;10.698;2022-09-30T02:06:40;4.43;;;4.13;;
20865;SDS011;10593;48.398;10.698;2022-09-30T02:09:12;4.43;;;4.13;;
20865;SDS011;10593;48.398;10.698;2022-09-30T02:11:46;5.00;;;4.60;;
20865;SDS011;10593;48.398;10.698;2022-09-30T02:17:30;3.93;;;3.63;;
20865;SDS011;10593;48.398;10.698;2022-09-30T02:19:51;3.80;;;3.60;;
20865;SDS011;10593;48.398;10.698;2022-09-30T02:22:27;4.93;;;4.00;;
20865;SDS011;10593;48.398;10.698;2022-09-30T02:25:18;4.10;;;3.50;;
20865;SDS011;10593;48.398;10.698;2022-09-30T02:27:54;4.37;;;4.07;;
20865;SDS011;10593;48.398;10.698;2022-09-30T02:30:25;4.37;;;4.07;;
20865;SDS011;10593;48.398;10.698;2022-09-30T02:33:02;4.33;;;3.93;;
20865;SDS011;10593;48.398;10.698;2022-09-30T02:35:40;3.77;;;3.57;;
20865;SDS011;10593;48.398;10.698;2022-09-30T02:38:29;4.33;;;3.93;;
20865;SDS011;10593;48.398;10.698;2022-09-30T02:41:10;4.13;;;3.83;;
20865;SDS011;10593;48.398;10.698;2022-09-30T02:43:41;4.20;;;3.90;;
20865;SDS011;10593;48.398;10.698;2022-09-30T02:49:17;3.67;;;3.47;;
20865;SDS011;10593;48.398;10.698;2022-09-30T02:52:14;3.13;;;2.93;;
20865;SDS011;10593;48.398;10.698;2022-09-30T02:57:47;3.57;;;3.37;;
20865;SDS011;10593;48.398;10.698;2022-09-30T03:00:28;3.37;;;3.17;;
20865;SDS011;10593;48.398;10.698;2022-09-30T03:02:56;3.33;;;3.13;;
20865;SDS011;10593;48.398;10.698;2022-09-30T03:05:34;3.23;;;3.03;;
20865;SDS011;10593;48.398;10.698;2022-09-30T03:08:00;3.70;;;3.50;;
20865;SDS011;10593;48.398;10.698;2022-09-30T03:10:26;3.30;;;3.10;;
20865;SDS011;10593;48.398;10.698;2022-09-30T03:13:04;4.20;;;3.90;;
20865;SDS011;10593;48.398;10.698;2022-09-30T03:16:12;3.63;;;3.43;;
20865;SDS011;10593;48.398;10.698;2022-09-30T03:21:50;4.67;;;3.90;;
20865;SDS011;10593;48.398;10.698;2022-09-30T03:29:40;4.27;;;3.97;;
20865;SDS011;10593;48.398;10.698;2022-09-30T03:35:45;5.23;;;4.73;;
20865;SDS011;10593;48.398;10.698;2022-09-30T03:41:05;5.67;;;5.17;;
20865;SDS011;10593;48.398;10.698;2022-09-30T03:46:34;5.27;;;4.77;;
20865;SDS011;10593;48.398;10.698;2022-09-30T03:49:38;5.77;;;5.27;;
20865;SDS011;10593;48.398;10.698;2022-09-30T03:52:11;5.70;;;5.17;;
20865;SDS011;10593;48.398;10.698;2022-09-30T03:54:49;6.93;;;6.33;;
20865;SDS011;10593;48.398;10.698;2022-09-30T03:57:22;5.60;;;5.10;;
20865;SDS011;10593;48.398;10.698;2022-09-30T03:59:52;5.30;;;4.80;;
20865;SDS011;10593;48.398;10.698;2022-09-30T04:02:18;6.00;;;5.40;;
20865;SDS011;10593;48.398;10.698;2022-09-30T04:04:45;5.90;;;5.40;;
20865;SDS011;10593;48.398;10.698;2022-09-30T04:07:10;6.20;;;5.70;;
20865;SDS011;10593;48.398;10.698;2022-09-30T04:09:37;5.43;;;4.93;;
20865;SDS011;10593;48.398;10.698;2022-09-30T04:12:03;5.23;;;4.73;;
20865;SDS011;10593;48.398;10.698;2022-09-30T04:14:31;7.30;;;5.77;;
20865;SDS011;10593;48.398;10.698;2022-09-30T04:16:58;6.53;;;5.93;;
20865;SDS011;10593;48.398;10.698;2022-09-30T04:19:25;5.87;;;5.27;;
20865;SDS011;10593;48.398;10.698;2022-09-30T04:21:53;6.37;;;5.77;;
20865;SDS011;10593;48.398;10.698;2022-09-30T04:24:20;6.37;;;5.77;;
20865;SDS011;10593;48.398;10.698;2022-09-30T04:26:47;6.60;;;6.00;;
20865;SDS011;10593;48.398;10.698;2022-09-30T04:29:14;7.20;;;6.50;;
20865;SDS011;10593;48.398;10.698;2022-09-30T04:31:40;7.70;;;7.00;;
20865;SDS011;10593;48.398;10.698;2022-09-30T04:34:06;6.87;;;6.27;;
20865;SDS011;10593;48.398;10.698;2022-09-30T04:36:32;7.77;;;7.07;;
20865;SDS011;10593;48.398;10.698;2022-09-30T04:38:58;7.50;;;6.80;;
20865;SDS011;10593;48.398;10.698;2022-09-30T04:41:23;7.00;;;6.40;;
20865;SDS011;10593;48.398;10.698;2022-09-30T04:43:49;6.27;;;5.67;;
20865;SDS011;10593;48.398;10.698;2022-09-30T04:46:16;7.60;;;5.70;;
20865;SDS011;10593;48.398;10.698;2022-09-30T04:48:44;6.63;;;6.03;;
20865;SDS011;10593;48.398;10.698;2022-09-30T04:51:12;6.93;;;6.33;;
20865;SDS011;10593;48.398;10.698;2022-09-30T04:53:39;6.77;;;6.17;;
20865;SDS011;10593;48.398;10.698;2022-09-30T04:56:05;8.17;;;5.53;;
20865;SDS011;10593;48.398;10.698;2022-09-30T04:58:32;6.70;;;6.10;;
20865;SDS011;10593;48.398;10.698;2022-09-30T05:01:00;7.07;;;6.37;;
20865;SDS011;10593;48.398;10.698;2022-09-30T05:03:32;6.27;;;5.67;;
20865;SDS011;10593;48.398;10.698;2022-09-30T05:05:58;6.10;;;5.50;;
20865;SDS011;10593;48.398;10.698;2022-09-30T05:08:24;6.13;;;5.53;;
20865;SDS011;10593;48.398;10.698;2022-09-30T05:10:57;6.10;;;5.50;;
20865;SDS011;10593;48.398;10.698;2022-09-30T05:13:31;6.50;;;5.90;;
20865;SDS011;10593;48.398;10.698;2022-09-30T05:16:00;7.93;;;7.00;;
20865;SDS011;10593;48.398;10.698;2022-09-30T05:18:27;7.77;;;7.07;;
20865;SDS011;10593;48.398;10.698;2022-09-30T05:20:54;7.73;;;6.97;;
20865;SDS011;10593;48.398;10.698;2022-09-30T05:23:22;7.40;;;6.70;;
20865;SDS011;10593;48.398;10.698;2022-09-30T05:25:50;6.40;;;5.80;;
20865;SDS011;10593;48.398;10.698;2022-09-30T05:28:16;7.37;;;6.67;;
20865;SDS011;10593;48.398;10.698;2022-09-30T05:30:43;6.90;;;6.20;;
20865;SDS011;10593;48.398;10.698;2022-09-30T05:33:11;7.50;;;6.80;;
20865;SDS011;10593;48.398;10.698;2022-09-30T05:35:41;7.83;;;7.03;;
20865;SDS011;10593;48.398;10.698;2022-09-30T05:38:08;7.67;;;6.63;;
20865;SDS011;10593;48.398;10.698;2022-09-30T05:40:37;6.97;;;6.30;;
20865;SDS011;10593;48.398;10.698;2022-09-30T05:43:04;7.27;;;6.57;;
20865;SDS011;10593;48.398;10.698;2022-09-30T05:45:30;7.83;;;7.13;;
20865;SDS011;10593;48.398;10.698;2022-09-30T05:47:57;7.20;;;6.57;;
20865;SDS011;10593;48.398;10.698;2022-09-30T05:50:23;8.33;;;7.43;;
20865;SDS011;10593;48.398;10.698;2022-09-30T05:52:49;7.63;;;6.93;;
20865;SDS011;10593;48.398;10.698;2022-09-30T05:55:16;8.07;;;7.37;;
20865;SDS011;10593;48.398;10.698;2022-09-30T05:57:46;8.30;;;7.50;;
20865;SDS011;10593;48.398;10.698;2022-09-30T06:00:14;8.47;;;7.67;;
20865;SDS011;10593;48.398;10.698;2022-09-30T06:02:40;8.97;;;7.80;;
20865;SDS011;10593;48.398;10.698;2022-09-30T06:05:06;8.60;;;7.80;;
20865;SDS011;10593;48.398;10.698;2022-09-30T06:07:33;9.07;;;8.17;;
20865;SDS011;10593;48.398;10.698;2022-09-30T06:10:00;9.33;;;8.43;;
20865;SDS011;10593;48.398;10.698;2022-09-30T06:12:27;8.43;;;7.63;;
20865;SDS011;10593;48.398;10.698;2022-09-30T06:14:53;9.13;;;8.23;;
20865;SDS011;10593;48.398;10.698;2022-09-30T06:17:20;9.83;;;8.83;;
20865;SDS011;10593;48.398;10.698;2022-09-30T06:19:47;8.93;;;8.03;;
20865;SDS011;10593;48.398;10.698;2022-09-30T06:22:16;9.57;;;8.67;;
20865;SDS011;10593;48.398;10.698;2022-09-30T06:24:42;10.60;;;8.97;;
20865;SDS011;10593;48.398;10.698;2022-09-30T06:27:09;10.97;;;9.73;;
20865;SDS011;10593;48.398;10.698;2022-09-30T06:29:35;11.20;;;10.00;;
20865;SDS011;10593;48.398;10.698;2022-09-30T06:32:02;10.67;;;8.67;;
20865;SDS011;10593;48.398;10.698;2022-09-30T06:34:28;11.27;;;9.80;;
20865;SDS011;10593;48.398;10.698;2022-09-30T06:36:54;9.67;;;8.70;;
20865;SDS011;10593;48.398;10.698;2022-09-30T06:39:20;10.10;;;9.10;;
20865;SDS011;10593;48.398;10.698;2022-09-30T06:41:45;10.43;;;9.40;;
20865;SDS011;10593;48.398;10.698;2022-09-30T06:44:11;10.20;;;8.87;;
20865;SDS011;10593;48.398;10.698;2022-09-30T06:46:37;10.77;;;9.30;;
20865;SDS011;10593;48.398;10.698;2022-09-30T06:49:03;10.73;;;9.53;;
20865;SDS011;10593;48.398;10.698;2022-09-30T06:51:30;11.27;;;9.83;;
20865;SDS011;10593;48.398;10.698;2022-09-30T06:54:00;10.93;;;9.20;;
20865;SDS011;10593;48.398;10.698;2022-09-30T06:56:26;10.07;;;9.00;;
20865;SDS011;10593;48.398;10.698;2022-09-30T06:58:52;9.57;;;8.63;;
20865;SDS011;10593;48.398;10.698;2022-09-30T07:01:21;9.83;;;8.83;;
20865;SDS011;10593;48.398;10.698;2022-09-30T07:03:48;9.00;;;8.10;;
20865;SDS011;10593;48.398;10.698;2022-09-30T07:06:18;8.80;;;7.90;;
20865;SDS011;10593;48.398;10.698;2022-09-30T07:08:44;9.73;;;8.33;;
20865;SDS011;10593;48.398;10.698;2022-09-30T07:11:10;9.77;;;8.87;;
20865;SDS011;10593;48.398;10.698;2022-09-30T07:13:47;8.23;;;7.43;;
20865;SDS011;10593;48.398;10.698;2022-09-30T07:16:14;8.10;;;7.30;;
20865;SDS011;10593;48.398;10.698;2022-09-30T07:18:42;8.67;;;7.87;;
20865;SDS011;10593;48.398;10.698;2022-09-30T07:21:10;8.00;;;7.20;;
20865;SDS011;10593;48.398;10.698;2022-09-30T07:23:39;8.30;;;7.50;;
20865;SDS011;10593;48.398;10.698;2022-09-30T07:26:13;8.10;;;7.27;;
20865;SDS011;10593;48.398;10.698;2022-09-30T07:28:42;9.97;;;8.93;;
20865;SDS011;10593;48.398;10.698;2022-09-30T07:31:10;8.63;;;7.77;;
20865;SDS011;10593;48.398;10.698;2022-09-30T07:33:40;10.40;;;9.40;;
20865;SDS011;10593;48.398;10.698;2022-09-30T07:36:07;9.60;;;8.70;;
20865;SDS011;10593;48.398;10.698;2022-09-30T07:38:36;8.63;;;7.83;;
20865;SDS011;10593;48.398;10.698;2022-09-30T07:41:12;8.80;;;7.90;;
20865;SDS011;10593;48.398;10.698;2022-09-30T07:43:44;7.87;;;7.07;;
20865;SDS011;10593;48.398;10.698;2022-09-30T07:48:40;7.60;;;6.90;;
20865;SDS011;10593;48.398;10.698;2022-09-30T07:51:19;8.13;;;7.33;;
20865;SDS011;10593;48.398;10.698;2022-09-30T07:53:58;7.93;;;7.23;;
20865;SDS011;10593;48.398;10.698;2022-09-30T07:56:27;7.80;;;7.20;;
20865;SDS011;10593;48.398;10.698;2022-09-30T07:58:54;7.80;;;7.10;;
20865;SDS011;10593;48.398;10.698;2022-09-30T08:01:23;7.97;;;7.27;;
20865;SDS011;10593;48.398;10.698;2022-09-30T08:03:53;7.90;;;7.10;;
20865;SDS011;10593;48.398;10.698;2022-09-30T08:06:21;7.00;;;6.30;;
20865;SDS011;10593;48.398;10.698;2022-09-30T08:08:50;7.80;;;7.10;;
20865;SDS011;10593;48.398;10.698;2022-09-30T08:11:19;8.33;;;6.90;;
20865;SDS011;10593;48.398;10.698;2022-09-30T08:13:54;7.77;;;7.07;;
20865;SDS011;10593;48.398;10.698;2022-09-30T08:16:21;7.53;;;6.83;;
20865;SDS011;10593;48.398;10.698;2022-09-30T08:18:52;7.63;;;7.03;;
20865;SDS011;10593;48.398;10.698;2022-09-30T08:21:20;7.03;;;6.43;;
20865;SDS011;10593;48.398;10.698;2022-09-30T08:23:46;7.27;;;6.57;;
20865;SDS011;10593;48.398;10.698;2022-09-30T08:26:12;7.40;;;6.70;;
20865;SDS011;10593;48.398;10.698;2022-09-30T08:28:39;6.07;;;5.57;;
20865;SDS011;10593;48.398;10.698;2022-09-30T08:31:06;6.17;;;5.67;;
20865;SDS011;10593;48.398;10.698;2022-09-30T08:33:35;6.80;;;6.20;;
20865;SDS011;10593;48.398;10.698;2022-09-30T08:36:08;6.97;;;6.47;;
20865;SDS011;10593;48.398;10.698;2022-09-30T08:38:35;6.73;;;6.13;;
20865;SDS011;10593;48.398;10.698;2022-09-30T08:50:01;6.57;;;6.00;;
20865;SDS011;10593;48.398;10.698;2022-09-30T08:52:52;7.93;;;7.17;;
20865;SDS011;10593;48.398;10.698;2022-09-30T08:55:32;7.73;;;7.10;;
20865;SDS011;10593;48.398;10.698;2022-09-30T08:58:05;7.33;;;6.73;;
20865;SDS011;10593;48.398;10.698;2022-09-30T09:00:46;6.87;;;6.27;;
20865;SDS011;10593;48.398;10.698;2022-09-30T09:03:16;8.13;;;7.37;;
20865;SDS011;10593;48.398;10.698;2022-09-30T09:09:08;8.07;;;7.37;;
20865;SDS011;10593;48.398;10.698;2022-09-30T09:20:32;7.23;;;6.63;;
20865;SDS011;10593;48.398;10.698;2022-09-30T09:23:08;7.10;;;6.40;;
20865;SDS011;10593;48.398;10.698;2022-09-30T09:25:36;6.77;;;6.17;;
20865;SDS011;10593;48.398;10.698;2022-09-30T09:28:05;7.03;;;6.33;;
20865;SDS011;10593;48.398;10.698;2022-09-30T09:30:57;6.30;;;5.80;;
20865;SDS011;10593;48.398;10.698;2022-09-30T09:33:27;6.93;;;6.33;;
20865;SDS011;10593;48.398;10.698;2022-09-30T09:44:41;6.57;;;6.00;;
20865;SDS011;10593;48.398;10.698;2022-09-30T09:47:25;5.07;;;4.67;;
20865;SDS011;10593;48.398;10.698;2022-09-30T09:49:52;5.63;;;5.13;;
20865;SDS011;10593;48.398;10.698;2022-09-30T09:55:20;5.53;;;5.03;;
20865;SDS011;10593;48.398;10.698;2022-09-30T09:57:47;6.40;;;5.80;;
20865;SDS011;10593;48.398;10.698;2022-09-30T10:00:29;6.63;;;6.03;;
20865;SDS011;10593;48.398;10.698;2022-09-30T10:03:14;6.77;;;6.17;;
20865;SDS011;10593;48.398;10.698;2022-09-30T10:08:36;6.47;;;5.93;;
20865;SDS011;10593;48.398;10.698;2022-09-30T10:11:21;6.63;;;5.60;;
20865;SDS011;10593;48.398;10.698;2022-09-30T10:13:49;5.70;;;5.20;;
20865;SDS011;10593;48.398;10.698;2022-09-30T10:16:26;5.33;;;4.90;;
20865;SDS011;10593;48.398;10.698;2022-09-30T10:18:55;6.17;;;5.63;;
20865;SDS011;10593;48.398;10.698;2022-09-30T10:21:23;5.53;;;5.13;;
20865;SDS011;10593;48.398;10.698;2022-09-30T10:23:52;4.97;;;4.47;;
20865;SDS011;10593;48.398;10.698;2022-09-30T10:26:19;5.13;;;4.73;;
20865;SDS011;10593;48.398;10.698;2022-09-30T10:31:29;5.23;;;4.83;;
20865;SDS011;10593;48.398;10.698;2022-09-30T10:36:47;5.63;;;5.17;;
20865;SDS011;10593;48.398;10.698;2022-09-30T10:41:44;4.77;;;4.37;;
20865;SDS011;10593;48.398;10.698;2022-09-30T10:44:12;4.97;;;4.57;;
20865;SDS011;10593;48.398;10.698;2022-09-30T10:46:50;5.00;;;4.60;;
20865;SDS011;10593;48.398;10.698;2022-09-30T10:49:29;5.07;;;4.67;;
20865;SDS011;10593;48.398;10.698;2022-09-30T10:54:52;5.17;;;4.77;;
20865;SDS011;10593;48.398;10.698;2022-09-30T10:57:27;4.70;;;4.40;;
20865;SDS011;10593;48.398;10.698;2022-09-30T11:00:02;4.47;;;4.07;;
20865;SDS011;10593;48.398;10.698;2022-09-30T11:02:35;3.63;;;3.33;;
20865;SDS011;10593;48.398;10.698;2022-09-30T11:05:22;3.87;;;3.57;;
20865;SDS011;10593;48.398;10.698;2022-09-30T11:16:36;4.60;;;4.30;;
20865;SDS011;10593;48.398;10.698;2022-09-30T11:22:32;3.93;;;3.60;;
20865;SDS011;10593;48.398;10.698;2022-09-30T11:25:02;3.13;;;2.93;;
20865;SDS011;10593;48.398;10.698;2022-09-30T11:37:36;3.23;;;3.03;;
20865;SDS011;10593;48.398;10.698;2022-09-30T11:51:38;3.67;;;3.37;;
20865;SDS011;10593;48.398;10.698;2022-09-30T11:57:51;3.30;;;3.10;;
20865;SDS011;10593;48.398;10.698;2022-09-30T12:00:33;3.23;;;2.93;;
20865;SDS011;10593;48.398;10.698;2022-09-30T12:03:10;3.10;;;2.90;;
20865;SDS011;10593;48.398;10.698;2022-09-30T12:05:45;3.60;;;2.97;;
20865;SDS011;10593;48.398;10.698;2022-09-30T12:08:19;3.70;;;3.40;;
20865;SDS011;10593;48.398;10.698;2022-09-30T12:10:54;3.60;;;3.33;;
20865;SDS011;10593;48.398;10.698;2022-09-30T12:13:39;4.13;;;3.80;;
20865;SDS011;10593;48.398;10.698;2022-09-30T12:16:24;3.90;;;3.40;;
20865;SDS011;10593;48.398;10.698;2022-09-30T12:18:58;3.40;;;3.10;;
20865;SDS011;10593;48.398;10.698;2022-09-30T12:24:30;3.93;;;3.63;;
20865;SDS011;10593;48.398;10.698;2022-09-30T12:27:02;3.23;;;2.93;;
20865;SDS011;10593;48.398;10.698;2022-09-30T12:29:41;3.67;;;3.37;;
20865;SDS011;10593;48.398;10.698;2022-09-30T12:36:07;4.17;;;3.87;;
20865;SDS011;10593;48.398;10.698;2022-09-30T12:39:01;4.40;;;4.00;;
20865;SDS011;10593;48.398;10.698;2022-09-30T12:42:17;4.40;;;4.00;;
20865;SDS011;10593;48.398;10.698;2022-09-30T12:45:12;3.80;;;3.53;;
20865;SDS011;10593;48.398;10.698;2022-09-30T12:48:20;4.03;;;3.63;;
20865;SDS011;10593;48.398;10.698;2022-09-30T12:50:56;3.90;;;3.60;;
20865;SDS011;10593;48.398;10.698;2022-09-30T12:53:30;4.33;;;3.93;;
20865;SDS011;10593;48.398;10.698;2022-09-30T12:56:11;3.50;;;3.30;;
20865;SDS011;10593;48.398;10.698;2022-09-30T12:58:43;3.60;;;3.40;;
20865;SDS011;10593;48.398;10.698;2022-09-30T13:01:15;3.70;;;3.40;;
20865;SDS011;10593;48.398;10.698;2022-09-30T13:11:41;3.23;;;3.03;;
20865;SDS011;10593;48.398;10.698;2022-09-30T13:14:33;2.77;;;2.57;;
20865;SDS011;10593;48.398;10.698;2022-09-30T13:27:42;3.30;;;3.10;;
20865;SDS011;10593;48.398;10.698;2022-09-30T13:33:03;3.37;;;3.17;;
20865;SDS011;10593;48.398;10.698;2022-09-30T13:35:51;3.30;;;3.10;;
20865;SDS011;10593;48.398;10.698;2022-09-30T13:38:31;3.60;;;3.40;;
20865;SDS011;10593;48.398;10.698;2022-09-30T13:41:13;4.50;;;3.60;;
20865;SDS011;10593;48.398;10.698;2022-09-30T13:43:46;7.10;;;4.13;;
20865;SDS011;10593;48.398;10.698;2022-09-30T13:52:10;2.83;;;2.63;;
20865;SDS011;10593;48.398;10.698;2022-09-30T13:54:48;4.23;;;2.93;;
20865;SDS011;10593;48.398;10.698;2022-09-30T13:57:19;3.20;;;3.00;;
20865;SDS011;10593;48.398;10.698;2022-09-30T14:00:05;3.23;;;3.03;;
20865;SDS011;10593;48.398;10.698;2022-09-30T14:08:53;2.90;;;2.70;;
20865;SDS011;10593;48.398;10.698;2022-09-30T14:24:12;3.50;;;3.20;;
20865;SDS011;10593;48.398;10.698;2022-09-30T14:30:03;2.97;;;2.77;;
20865;SDS011;10593;48.398;10.698;2022-09-30T14:32:44;2.67;;;2.47;;
20865;SDS011;10593;48.398;10.698;2022-09-30T14:35:17;3.00;;;2.70;;
20865;SDS011;10593;48.398;10.698;2022-09-30T14:40:18;3.40;;;3.10;;
20865;SDS011;10593;48.398;10.698;2022-09-30T14:42:50;2.70;;;2.50;;
20865;SDS011;10593;48.398;10.698;2022-09-30T14:45:23;3.37;;;3.13;;
20865;SDS011;10593;48.398;10.698;2022-09-30T14:47:52;3.40;;;3.10;;
20865;SDS011;10593;48.398;10.698;2022-09-30T14:50:24;3.23;;;3.03;;
20865;SDS011;10593;48.398;10.698;2022-09-30T14:52:58;3.43;;;3.13;;
20865;SDS011;10593;48.398;10.698;2022-09-30T15:00:59;2.97;;;2.77;;
20865;SDS011;10593;48.398;10.698;2022-09-30T15:03:36;3.27;;;2.97;;
20865;SDS011;10593;48.398;10.698;2022-09-30T15:06:19;3.60;;;3.30;;
20865;SDS011;10593;48.398;10.698;2022-09-30T15:08:52;3.20;;;3.00;;
20865;SDS011;10593;48.398;10.698;2022-09-30T15:11:28;3.00;;;2.80;;
20865;SDS011;10593;48.398;10.698;2022-09-30T15:14:04;2.93;;;2.73;;
20865;SDS011;10593;48.398;10.698;2022-09-30T15:16:52;2.10;;;2.00;;
20865;SDS011;10593;48.398;10.698;2022-09-30T15:19:26;2.30;;;2.10;;
20865;SDS011;10593;48.398;10.698;2022-09-30T15:21:58;1.90;;;1.80;;
20865;SDS011;10593;48.398;10.698;2022-09-30T15:24:29;2.30;;;2.10;;
20865;SDS011;10593;48.398;10.698;2022-09-30T15:26:57;2.53;;;2.33;;
20865;SDS011;10593;48.398;10.698;2022-09-30T15:29:25;2.17;;;1.97;;
20865;SDS011;10593;48.398;10.698;2022-09-30T15:32:13;2.37;;;2.17;;
20865;SDS011;10593;48.398;10.698;2022-09-30T15:34:47;1.93;;;1.83;;
20865;SDS011;10593;48.398;10.698;2022-09-30T15:37:18;1.90;;;1.80;;
20865;SDS011;10593;48.398;10.698;2022-09-30T15:39:57;2.13;;;2.03;;
20865;SDS011;10593;48.398;10.698;2022-09-30T15:45:35;2.70;;;2.10;;
20865;SDS011;10593;48.398;10.698;2022-09-30T15:50:58;2.57;;;2.37;;
20865;SDS011;10593;48.398;10.698;2022-09-30T15:53:28;2.30;;;2.20;;
20865;SDS011;10593;48.398;10.698;2022-09-30T16:01:38;2.80;;;2.60;;
20865;SDS011;10593;48.398;10.698;2022-09-30T16:06:42;3.17;;;2.87;;
20865;SDS011;10593;48.398;10.698;2022-09-30T16:09:27;3.60;;;3.30;;
20865;SDS011;10593;48.398;10.698;2022-09-30T16:14:59;4.40;;;4.00;;
20865;SDS011;10593;48.398;10.698;2022-09-30T16:17:37;4.77;;;4.40;;
20865;SDS011;10593;48.398;10.698;2022-09-30T16:30:21;5.00;;;4.60;;
20865;SDS011;10593;48.398;10.698;2022-09-30T16:32:48;5.67;;;5.20;;
20865;SDS011;10593;48.398;10.698;2022-09-30T16:35:19;5.60;;;5.20;;
20865;SDS011;10593;48.398;10.698;2022-09-30T16:37:48;6.93;;;6.43;;
20865;SDS011;10593;48.398;10.698;2022-09-30T16:40:22;6.30;;;5.80;;
20865;SDS011;10593;48.398;10.698;2022-09-30T16:42:51;6.80;;;6.20;;
20865;SDS011;10593;48.398;10.698;2022-09-30T16:45:20;7.10;;;6.50;;
20865;SDS011;10593;48.398;10.698;2022-09-30T16:47:46;7.63;;;6.90;;
20865;SDS011;10593;48.398;10.698;2022-09-30T16:50:24;6.53;;;6.10;;
20865;SDS011;10593;48.398;10.698;2022-09-30T16:53:02;8.77;;;7.97;;
20865;SDS011;10593;48.398;10.698;2022-09-30T16:55:27;10.37;;;9.27;;
20865;SDS011;10593;48.398;10.698;2022-09-30T16:57:54;10.30;;;9.40;;
20865;SDS011;10593;48.398;10.698;2022-09-30T17:00:21;8.93;;;8.13;;
20865;SDS011;10593;48.398;10.698;2022-09-30T17:02:49;8.27;;;7.57;;
20865;SDS011;10593;48.398;10.698;2022-09-30T17:05:17;7.23;;;6.63;;
20865;SDS011;10593;48.398;10.698;2022-09-30T17:07:46;7.50;;;6.70;;
20865;SDS011;10593;48.398;10.698;2022-09-30T17:10:28;6.00;;;5.50;;
20865;SDS011;10593;48.398;10.698;2022-09-30T17:12:57;21.63;;;6.20;;
20865;SDS011;10593;48.398;10.698;2022-09-30T17:15:24;7.23;;;5.90;;
20865;SDS011;10593;48.398;10.698;2022-09-30T17:17:52;8.33;;;7.53;;
20865;SDS011;10593;48.398;10.698;2022-09-30T17:20:19;7.00;;;6.47;;
20865;SDS011;10593;48.398;10.698;2022-09-30T17:22:46;6.43;;;5.83;;
20865;SDS011;10593;48.398;10.698;2022-09-30T17:25:13;6.40;;;5.80;;
20865;SDS011;10593;48.398;10.698;2022-09-30T17:27:41;5.30;;;4.83;;
20865;SDS011;10593;48.398;10.698;2022-09-30T17:30:07;6.30;;;5.70;;
20865;SDS011;10593;48.398;10.698;2022-09-30T17:32:34;8.20;;;7.40;;
20865;SDS011;10593;48.398;10.698;2022-09-30T17:35:00;6.87;;;6.27;;
20865;SDS011;10593;48.398;10.698;2022-09-30T17:37:30;10.77;;;7.03;;
20865;SDS011;10593;48.398;10.698;2022-09-30T17:39:56;8.20;;;7.50;;
20865;SDS011;10593;48.398;10.698;2022-09-30T17:42:21;7.13;;;6.53;;
20865;SDS011;10593;48.398;10.698;2022-09-30T17:45:05;5.63;;;5.20;;
20865;SDS011;10593;48.398;10.698;2022-09-30T17:47:32;4.10;;;3.83;;
20865;SDS011;10593;48.398;10.698;2022-09-30T17:49:57;4.60;;;4.20;;
20865;SDS011;10593;48.398;10.698;2022-09-30T17:52:23;4.80;;;4.40;;
20865;SDS011;10593;48.398;10.698;2022-09-30T17:54:52;5.63;;;4.73;;
20865;SDS011;10593;48.398;10.698;2022-09-30T17:57:19;4.43;;;4.07;;
20865;SDS011;10593;48.398;10.698;2022-09-30T17:59:45;3.73;;;3.43;;
20865;SDS011;10593;48.398;10.698;2022-09-30T18:02:12;4.20;;;3.80;;
20865;SDS011;10593;48.398;10.698;2022-09-30T18:04:42;4.27;;;3.97;;
20865;SDS011;10593;48.398;10.698;2022-09-30T18:07:08;4.80;;;4.10;;
20865;SDS011;10593;48.398;10.698;2022-09-30T18:09:35;4.27;;;3.97;;
20865;SDS011;10593;48.398;10.698;2022-09-30T18:12:02;4.47;;;4.17;;
20865;SDS011;10593;48.398;10.698;2022-09-30T18:14:30;4.73;;;4.33;;
20865;SDS011;10593;48.398;10.698;2022-09-30T18:17:01;5.60;;;4.93;;
20865;SDS011;10593;48.398;10.698;2022-09-30T18:19:28;4.87;;;4.47;;
20865;SDS011;10593;48.398;10.698;2022-09-30T18:21:55;4.67;;;4.27;;
20865;SDS011;10593;48.398;10.698;2022-09-30T18:24:21;5.60;;;5.20;;
20865;SDS011;10593;48.398;10.698;2022-09-30T18:27:07;5.70;;;5.20;;
20865;SDS011;10593;48.398;10.698;2022-09-30T18:29:34;5.43;;;5.00;;
20865;SDS011;10593;48.398;10.698;2022-09-30T18:32:00;5.90;;;5.30;;
20865;SDS011;10593;48.398;10.698;2022-09-30T18:34:26;5.27;;;4.53;;
20865;SDS011;10593;48.398;10.698;2022-09-30T18:36:52;4.33;;;4.03;;
20865;SDS011;10593;48.398;10.698;2022-09-30T18:39:17;5.10;;;4.17;;
20865;SDS011;10593;48.398;10.698;2022-09-30T18:41:43;4.47;;;4.17;;
20865;SDS011;10593;48.398;10.698;2022-09-30T18:44:09;5.37;;;4.93;;
20865;SDS011;10593;48.398;10.698;2022-09-30T18:46:35;5.27;;;4.87;;
20865;SDS011;10593;48.398;10.698;2022-09-30T18:49:01;6.03;;;5.47;;
20865;SDS011;10593;48.398;10.698;2022-09-30T18:51:28;4.17;;;3.70;;
20865;SDS011;10593;48.398;10.698;2022-09-30T18:53:58;2.80;;;2.60;;
20865;SDS011;10593;48.398;10.698;2022-09-30T18:56:26;2.43;;;2.23;;